createdAt,value
2023-02-23T00:00:34.982Z,99.90
2023-02-23T00:03:03.892Z,99.90
2023-02-23T00:05:37.595Z,99.90
2023-02-23T00:08:06.971Z,99.90
2023-02-23T00:10:36.996Z,99.90
2023-02-23T00:13:06.816Z,99.90
2023-02-23T00:15:39.897Z,99.90
2023-02-23T00:18:10.320Z,99.90
2023-02-23T00:20:48.237Z,1.00
2023-02-23T00:23:17.324Z,1.00
2023-02-23T00:25:47.151Z,1.00
2023-02-23T00:28:17.813Z,99.90
2023-02-23T00:30:49.955Z,99.90
2023-02-23T00:33:20.571Z,1.00
2023-02-23T00:35:57.096Z,1.00
2023-02-23T00:38:26.846Z,1.00
2023-02-23T00:40:58.558Z,1.00
2023-02-23T00:43:28.431Z,99.90
2023-02-23T00:46:07.434Z,99.90
2023-02-23T00:48:39.630Z,99.90
2023-02-23T00:51:08.770Z,99.90
2023-02-23T00:53:39.584Z,99.90
2023-02-23T00:56:18.596Z,99.90
2023-02-23T00:58:51.310Z,99.90
2023-02-23T01:01:25.812Z,99.90
2023-02-23T01:04:01.482Z,99.90
2023-02-23T01:06:35.270Z,99.90
2023-02-23T01:09:10.187Z,99.90
2023-02-23T01:11:41.644Z,99.90
2023-02-23T01:14:12.702Z,99.90
2023-02-23T01:16:44.438Z,99.90
2023-02-23T01:19:16.029Z,90.00
2023-02-23T01:21:45.855Z,91.90
2023-02-23T01:24:16.123Z,55.10
2023-02-23T01:26:47.058Z,52.90
2023-02-23T01:29:19.964Z,90.10
2023-02-23T01:31:52.299Z,99.90
2023-02-23T01:34:22.751Z,99.90
2023-02-23T01:36:53.896Z,99.90
2023-02-23T01:39:23.341Z,99.90
2023-02-23T01:41:54.765Z,99.90
2023-02-23T01:45:24.303Z,99.90
2023-02-23T01:47:58.167Z,99.90
2023-02-23T01:50:30.817Z,99.90
2023-02-23T01:53:01.268Z,99.90
2023-02-23T01:55:31.592Z,99.90
2023-02-23T01:58:07.748Z,99.90
2023-02-23T02:00:56.587Z,99.90
2023-02-23T02:03:31.344Z,99.90
2023-02-23T02:06:02.861Z,99.90
2023-02-23T02:08:32.813Z,99.90
2023-02-23T02:11:08.536Z,99.90
2023-02-23T02:13:38.759Z,1.00
2023-02-23T02:16:42.538Z,1.00
2023-02-23T02:19:46.159Z,1.00
2023-02-23T02:22:49.254Z,1.00
2023-02-23T02:25:38.761Z,1.00
2023-02-23T02:28:45.031Z,1.00
2023-02-23T02:31:52.922Z,1.00
2023-02-23T02:34:57.694Z,99.90
2023-02-23T02:37:47.912Z,99.90
2023-02-23T02:40:23.694Z,78.70
2023-02-23T02:43:10.891Z,1.00
2023-02-23T02:45:47.192Z,1.00
2023-02-23T02:48:25.905Z,1.00
2023-02-23T02:50:57.568Z,1.00
2023-02-23T02:53:38.192Z,33.30
2023-02-23T02:56:09.338Z,23.70
2023-02-23T02:58:43.857Z,1.00
2023-02-23T03:01:35.652Z,1.00
2023-02-23T03:04:37.448Z,1.00
2023-02-23T03:07:29.823Z,1.00
2023-02-23T03:10:24.716Z,1.00
2023-02-23T03:13:21.072Z,1.00
2023-02-23T03:16:14.352Z,1.00
2023-02-23T03:19:14.413Z,1.00
2023-02-23T03:22:10.460Z,1.00
2023-02-23T03:25:01.862Z,1.00
2023-02-23T03:28:00.750Z,1.00
2023-02-23T03:30:58.237Z,1.00
2023-02-23T03:33:53.964Z,1.00
2023-02-23T03:36:45.037Z,1.00
2023-02-23T03:39:39.013Z,1.00
2023-02-23T03:42:29.902Z,1.00
2023-02-23T03:45:23.447Z,1.00
2023-02-23T03:48:12.514Z,1.00
2023-02-23T03:51:02.149Z,1.00
2023-02-23T03:53:53.833Z,1.00
2023-02-23T03:56:44.821Z,1.00
2023-02-23T03:59:34.852Z,1.00
2023-02-23T04:02:25.551Z,1.00
2023-02-23T04:05:15.196Z,1.00
2023-02-23T04:08:01.422Z,1.00
2023-02-23T04:10:49.823Z,1.00
2023-02-23T04:13:21.004Z,99.90
2023-02-23T04:15:51.870Z,99.90
2023-02-23T04:18:26.342Z,99.90
2023-02-23T04:20:55.929Z,99.90
2023-02-23T04:23:25.420Z,99.90
2023-02-23T04:25:54.494Z,99.90
2023-02-23T04:28:23.827Z,99.90
2023-02-23T04:30:53.057Z,99.90
2023-02-23T04:33:25.582Z,99.90
2023-02-23T04:35:55.293Z,99.90
2023-02-23T04:38:24.725Z,99.90
2023-02-23T04:40:53.697Z,99.90
2023-02-23T04:43:22.276Z,99.90
2023-02-23T04:45:52.360Z,99.90
2023-02-23T04:48:23.556Z,99.90
2023-02-23T04:50:54.482Z,99.90
2023-02-23T04:53:23.571Z,99.90
2023-02-23T04:55:51.968Z,99.90
2023-02-23T04:58:20.280Z,99.90
2023-02-23T05:00:49.442Z,99.90
2023-02-23T05:03:18.605Z,99.90
2023-02-23T05:05:48.429Z,99.90
2023-02-23T05:08:16.699Z,88.50
2023-02-23T05:10:45.093Z,71.70
2023-02-23T05:13:13.656Z,81.10
2023-02-23T05:15:41.974Z,86.00
2023-02-23T05:18:10.786Z,55.60
2023-02-23T05:20:39.314Z,40.40
2023-02-23T05:23:09.112Z,1.00
2023-02-23T05:25:39.543Z,1.00
2023-02-23T05:28:08.080Z,1.00
2023-02-23T05:30:36.666Z,1.00
2023-02-23T05:33:05.389Z,1.00
2023-02-23T05:35:33.622Z,1.00
2023-02-23T05:38:01.838Z,1.00
2023-02-23T05:40:32.803Z,1.00
2023-02-23T05:43:01.636Z,1.00
2023-02-23T05:45:30.451Z,1.00
2023-02-23T05:47:59.291Z,1.00
2023-02-23T05:50:28.857Z,1.00
2023-02-23T05:52:57.211Z,1.00
2023-02-23T05:55:25.811Z,1.00
2023-02-23T05:57:56.160Z,1.00
2023-02-23T06:00:31.766Z,1.00
2023-02-23T06:03:01.387Z,1.00
2023-02-23T06:05:32.315Z,1.00
2023-02-23T06:08:10.729Z,1.00
2023-02-23T06:10:40.552Z,1.00
2023-02-23T06:13:15.692Z,1.00
2023-02-23T06:15:50.189Z,1.00
2023-02-23T06:18:22.774Z,1.00
2023-02-23T06:20:54.219Z,99.90
2023-02-23T06:23:32.659Z,99.90
2023-02-23T06:26:10.657Z,99.90
2023-02-23T06:28:59.659Z,99.90
2023-02-23T06:31:29.895Z,99.90
2023-02-23T06:34:00.645Z,99.90
2023-02-23T06:36:31.807Z,99.90
2023-02-23T06:39:04.464Z,99.90
2023-02-23T06:41:36.792Z,1.00
2023-02-23T06:44:11.263Z,99.90
2023-02-23T06:46:41.550Z,99.90
2023-02-23T06:49:17.346Z,1.00
2023-02-23T06:51:50.037Z,1.00
2023-02-23T06:54:30.447Z,1.00
2023-02-23T06:57:07.372Z,1.00
2023-02-23T06:59:44.003Z,1.00
2023-02-23T07:02:24.601Z,1.00
2023-02-23T07:05:13.905Z,1.00
2023-02-23T07:08:10.052Z,20.80
2023-02-23T07:10:49.933Z,1.00
2023-02-23T07:13:31.849Z,1.00
2023-02-23T07:16:05.033Z,1.00
2023-02-23T07:18:49.806Z,1.00
2023-02-23T07:21:21.486Z,1.00
2023-02-23T07:23:51.684Z,1.00
2023-02-23T07:26:24.986Z,1.00
2023-02-23T07:28:59.191Z,1.00
2023-02-23T07:31:42.986Z,1.00
2023-02-23T07:34:18.249Z,1.00
2023-02-23T07:36:48.793Z,1.00
2023-02-23T07:39:21.579Z,1.00
2023-02-23T07:41:56.099Z,1.00
2023-02-23T07:44:26.724Z,1.00
2023-02-23T07:47:05.147Z,1.00
2023-02-23T07:49:38.312Z,18.40
2023-02-23T07:52:08.653Z,27.80
2023-02-23T07:54:39.853Z,18.00
2023-02-23T07:57:11.364Z,42.20
2023-02-23T07:59:40.122Z,1.00
2023-02-23T08:02:15.134Z,1.00
2023-02-23T08:04:54.724Z,1.00
2023-02-23T08:07:30.116Z,1.00
2023-02-23T08:10:12.488Z,1.00
2023-02-23T08:12:45.754Z,1.00
2023-02-23T08:15:21.588Z,1.00
2023-02-23T08:17:59.200Z,1.00
2023-02-23T08:20:28.994Z,1.00
2023-02-23T08:23:00.630Z,1.00
2023-02-23T08:25:33.873Z,1.00
2023-02-23T08:28:04.947Z,1.00
2023-02-23T08:30:40.974Z,1.00
2023-02-23T08:33:37.074Z,1.00
2023-02-23T08:36:07.340Z,1.00
2023-02-23T08:38:41.132Z,1.00
2023-02-23T08:41:10.995Z,1.00
2023-02-23T08:43:40.497Z,1.00
2023-02-23T08:46:10.782Z,1.00
2023-02-23T08:48:41.662Z,1.00
2023-02-23T08:51:12.072Z,1.00
2023-02-23T08:53:42.037Z,1.00
2023-02-23T08:56:16.021Z,1.00
2023-02-23T08:58:46.565Z,1.00
2023-02-23T09:01:23.350Z,1.00
2023-02-23T09:04:11.424Z,1.00
2023-02-23T09:06:45.494Z,1.00
2023-02-23T09:09:18.077Z,1.00
2023-02-23T09:11:49.145Z,1.00
2023-02-23T09:14:24.659Z,1.00
2023-02-23T09:16:56.584Z,1.00
2023-02-23T09:19:33.570Z,1.00
2023-02-23T09:22:07.006Z,1.00
2023-02-23T09:24:42.326Z,1.00
2023-02-23T09:27:15.485Z,1.00
2023-02-23T09:29:47.163Z,1.00
2023-02-23T09:32:17.794Z,1.00
2023-02-23T09:34:49.181Z,1.00
2023-02-23T09:37:22.506Z,1.00
2023-02-23T09:39:53.996Z,1.00
2023-02-23T09:42:35.950Z,1.00
2023-02-23T09:45:16.660Z,1.00
2023-02-23T09:48:00.215Z,1.00
2023-02-23T09:50:36.213Z,1.00
2023-02-23T09:53:10.346Z,1.00
2023-02-23T09:55:42.932Z,1.00
2023-02-23T09:58:21.725Z,1.00
2023-02-23T10:01:00.361Z,1.00
2023-02-23T10:03:33.969Z,1.00
2023-02-23T10:06:09.476Z,99.90
2023-02-23T10:08:57.272Z,99.90
2023-02-23T10:11:36.358Z,99.90
2023-02-23T10:14:29.977Z,99.90
2023-02-23T10:17:11.708Z,99.90
2023-02-23T10:19:46.119Z,99.90
2023-02-23T10:22:22.211Z,99.90
2023-02-23T10:24:58.814Z,99.90
2023-02-23T10:27:35.295Z,99.90
2023-02-23T10:30:17.431Z,99.90
2023-02-23T10:32:56.715Z,99.90
2023-02-23T10:35:34.027Z,99.90
2023-02-23T10:38:06.880Z,99.90
2023-02-23T10:40:38.257Z,99.90
2023-02-23T10:43:10.668Z,99.90
2023-02-23T10:45:49.394Z,99.90
2023-02-23T10:48:23.416Z,99.90
2023-02-23T10:51:03.422Z,99.90
2023-02-23T10:53:42.653Z,99.90
2023-02-23T10:56:17.895Z,99.90
2023-02-23T10:58:50.615Z,99.90
2023-02-23T11:02:01.324Z,99.90
2023-02-23T11:04:40.568Z,99.90
2023-02-23T11:07:21.597Z,99.90
2023-02-23T11:10:01.302Z,99.90
2023-02-23T11:12:42.428Z,99.90
2023-02-23T11:15:54.466Z,99.90
2023-02-23T11:18:29.459Z,99.90
2023-02-23T11:21:12.583Z,99.90
2023-02-23T11:26:45.734Z,99.90
2023-02-23T11:29:30.099Z,99.90
2023-02-23T11:32:10.813Z,99.90
2023-02-23T11:34:54.781Z,99.90
2023-02-23T11:37:41.819Z,99.90
2023-02-23T11:40:26.509Z,99.90
2023-02-23T11:43:14.680Z,99.90
2023-02-23T11:45:57.112Z,99.90
2023-02-23T11:48:31.581Z,99.90
2023-02-23T11:51:09.208Z,99.90
2023-02-23T11:53:42.383Z,99.90
2023-02-23T11:56:31.076Z,99.90
2023-02-23T11:59:05.884Z,99.90
2023-02-23T12:01:47.236Z,99.90
2023-02-23T12:04:32.955Z,99.90
2023-02-23T12:07:27.544Z,99.90
2023-02-23T12:10:04.895Z,99.90
2023-02-23T12:12:43.842Z,99.90
2023-02-23T12:15:23.271Z,99.90
2023-02-23T12:18:01.718Z,99.90
2023-02-23T12:20:51.986Z,99.90
2023-02-23T12:23:30.493Z,99.90
2023-02-23T12:26:07.694Z,99.90
2023-02-23T12:28:44.568Z,99.90
2023-02-23T12:31:38.471Z,99.90
2023-02-23T12:34:20.566Z,99.90
2023-02-23T12:36:58.858Z,99.90
2023-02-23T12:39:32.980Z,99.90
2023-02-23T12:42:10.736Z,99.90
2023-02-23T12:44:50.790Z,99.90
2023-02-23T12:47:31.354Z,99.60
2023-02-23T12:50:07.946Z,99.40
2023-02-23T12:52:46.286Z,96.20
2023-02-23T12:55:15.841Z,93.70
2023-02-23T12:57:50.843Z,90.40
2023-02-23T13:00:45.278Z,89.00
2023-02-23T13:03:57.753Z,72.10
2023-02-23T13:06:43.348Z,71.70
2023-02-23T13:09:22.921Z,57.90
2023-02-23T13:12:07.906Z,61.10
2023-02-23T13:15:00.012Z,67.50
2023-02-23T13:17:41.472Z,61.90
2023-02-23T13:20:24.302Z,68.80
2023-02-23T13:23:04.650Z,64.90
2023-02-23T13:25:43.574Z,67.30
2023-02-23T13:28:20.655Z,55.40
2023-02-23T13:30:56.844Z,53.70
2023-02-23T13:33:43.215Z,55.40
2023-02-23T13:36:15.584Z,52.80
2023-02-23T13:38:53.943Z,61.70
2023-02-23T13:41:34.257Z,52.30
2023-02-23T13:44:10.916Z,51.60
2023-02-23T13:46:54.446Z,58.30
2023-02-23T13:49:39.811Z,58.10
2023-02-23T13:52:31.868Z,54.80
2023-02-23T13:55:09.158Z,49.60
2023-02-23T13:57:53.035Z,53.00
2023-02-23T14:00:23.701Z,60.40
2023-02-23T14:03:11.808Z,55.60
2023-02-23T14:05:45.477Z,44.80
2023-02-23T14:08:25.324Z,50.70
2023-02-23T14:11:03.929Z,46.10
2023-02-23T14:13:39.057Z,38.00
2023-02-23T14:16:35.137Z,40.80
2023-02-23T14:19:39.486Z,39.90
2023-02-23T14:22:23.664Z,32.90
2023-02-23T14:25:32.400Z,28.60
2023-02-23T14:28:07.530Z,26.30
2023-02-23T14:30:51.307Z,26.70
2023-02-23T14:33:43.128Z,27.20
2023-02-23T14:36:40.763Z,22.70
2023-02-23T14:39:18.979Z,23.60
2023-02-23T14:41:51.536Z,26.30
2023-02-23T14:44:29.818Z,20.60
2023-02-23T14:47:04.117Z,4.50
2023-02-23T14:49:41.408Z,9.70
2023-02-23T14:52:18.821Z,11.90
2023-02-23T14:54:49.029Z,5.10
2023-02-23T14:57:24.390Z,5.30
2023-02-23T15:00:02.597Z,1.00
2023-02-23T15:02:35.516Z,2.50
2023-02-23T15:05:26.663Z,1.40
2023-02-23T15:07:59.255Z,1.00
2023-02-23T15:10:32.234Z,1.00
2023-02-23T15:13:03.899Z,1.00
2023-02-23T15:15:42.787Z,1.00
2023-02-23T15:18:26.148Z,1.00
2023-02-23T15:20:55.098Z,1.00
2023-02-23T15:23:26.934Z,1.00
2023-02-23T15:25:55.785Z,1.00
2023-02-23T15:28:30.436Z,1.00
2023-02-23T15:31:13.979Z,1.00
2023-02-23T15:33:45.214Z,1.00
2023-02-23T15:36:22.470Z,1.00
2023-02-23T15:38:56.892Z,1.00
2023-02-23T15:41:34.773Z,1.00
2023-02-23T15:44:12.222Z,1.00
2023-02-23T15:46:53.165Z,1.00
2023-02-23T15:49:29.524Z,1.00
2023-02-23T15:52:01.485Z,1.00
2023-02-23T15:54:37.344Z,1.00
2023-02-23T15:57:16.585Z,1.00
2023-02-23T15:59:55.000Z,1.00
2023-02-23T16:02:29.923Z,1.00
2023-02-23T16:05:32.765Z,1.00
2023-02-23T16:08:09.162Z,1.00
2023-02-23T16:10:51.420Z,1.00
2023-02-23T16:13:24.969Z,1.00
2023-02-23T16:16:00.329Z,1.00
2023-02-23T16:18:45.824Z,1.00
2023-02-23T16:21:27.190Z,1.00
2023-02-23T16:24:06.469Z,1.00
2023-02-23T16:26:50.497Z,1.00
2023-02-23T16:29:33.493Z,1.00
2023-02-23T16:32:19.576Z,1.00
2023-02-23T16:35:02.652Z,1.00
2023-02-23T16:37:36.210Z,1.00
2023-02-23T16:40:11.128Z,1.00
2023-02-23T16:42:48.298Z,1.00
2023-02-23T16:45:18.989Z,1.00
2023-02-23T16:48:13.121Z,1.00
2023-02-23T16:50:59.700Z,1.00
2023-02-23T16:53:42.492Z,1.00
2023-02-23T16:56:26.395Z,1.00
2023-02-23T16:59:10.905Z,1.00
2023-02-23T17:01:48.623Z,1.00
2023-02-23T17:04:20.695Z,1.00
2023-02-23T17:06:56.454Z,1.00
2023-02-23T17:09:32.215Z,1.00
2023-02-23T17:12:01.648Z,1.00
2023-02-23T17:14:38.319Z,1.00
2023-02-23T17:17:53.308Z,1.00
2023-02-23T17:20:28.350Z,1.00
2023-02-23T17:23:15.034Z,1.00
2023-02-23T17:26:02.748Z,1.00
2023-02-23T17:28:41.965Z,1.00
2023-02-23T17:31:39.354Z,1.00
2023-02-23T17:34:21.655Z,1.00
2023-02-23T17:37:31.665Z,1.00
2023-02-23T17:40:38.524Z,1.00
2023-02-23T17:43:09.373Z,1.00
2023-02-23T17:45:44.588Z,1.00
2023-02-23T17:48:14.613Z,1.00
2023-02-23T17:50:47.650Z,1.00
2023-02-23T17:53:19.396Z,1.00
2023-02-23T17:56:02.167Z,1.00
2023-02-23T17:58:32.961Z,1.00
2023-02-23T18:01:03.805Z,1.00
2023-02-23T18:03:38.533Z,1.00
2023-02-23T18:06:14.872Z,1.00
2023-02-23T18:08:45.920Z,1.00
2023-02-23T18:11:25.104Z,1.00
2023-02-23T18:13:58.926Z,1.00
2023-02-23T18:16:29.949Z,1.00
2023-02-23T18:19:18.218Z,1.00
2023-02-23T18:22:02.065Z,1.00
2023-02-23T18:24:38.499Z,1.00
2023-02-23T18:27:09.408Z,1.00
2023-02-23T18:29:44.866Z,1.00
2023-02-23T18:32:25.202Z,1.00
2023-02-23T18:35:09.193Z,1.00
2023-02-23T18:37:38.390Z,1.00
2023-02-23T18:40:08.451Z,1.00
2023-02-23T18:45:17.469Z,1.00
2023-02-23T18:47:47.796Z,1.00
2023-02-23T18:50:19.552Z,1.00
2023-02-23T18:52:59.463Z,1.00
2023-02-23T18:55:34.244Z,1.00
2023-02-23T18:58:06.239Z,1.00
2023-02-23T19:00:40.658Z,1.00
2023-02-23T19:03:10.123Z,1.00
2023-02-23T19:05:39.043Z,1.00
2023-02-23T19:08:14.570Z,1.00
2023-02-23T19:10:44.171Z,1.00
2023-02-23T19:13:14.308Z,1.00
2023-02-23T19:15:44.034Z,1.00
2023-02-23T19:18:12.992Z,1.00
2023-02-23T19:20:46.499Z,1.00
2023-02-23T19:23:14.984Z,1.00
2023-02-23T19:25:48.675Z,1.00
2023-02-23T19:28:19.726Z,1.00
2023-02-23T19:30:51.191Z,1.00
2023-02-23T19:33:21.526Z,1.00
2023-02-23T19:35:51.518Z,1.00
2023-02-23T19:38:20.460Z,1.00
2023-02-23T19:40:50.421Z,1.00
2023-02-23T19:43:21.311Z,1.00
2023-02-23T19:45:49.923Z,1.00
2023-02-23T19:48:22.736Z,1.00
2023-02-23T19:51:05.563Z,1.00
2023-02-23T19:53:41.589Z,1.00
2023-02-23T19:56:13.201Z,1.00
2023-02-23T19:58:54.145Z,15.90
2023-02-23T20:01:30.286Z,29.70
2023-02-23T20:04:06.634Z,42.50
2023-02-23T20:06:48.166Z,56.50
2023-02-23T20:09:18.752Z,72.70
2023-02-23T20:12:03.751Z,87.50
2023-02-23T20:14:34.762Z,93.30
2023-02-23T20:17:15.086Z,98.50
2023-02-23T20:19:43.928Z,99.90
2023-02-23T20:22:15.825Z,99.90
2023-02-23T20:24:51.471Z,99.90
2023-02-23T20:27:23.066Z,99.90
2023-02-23T20:29:54.120Z,99.90
2023-02-23T20:32:22.649Z,99.90
2023-02-23T20:34:51.859Z,99.90
2023-02-23T20:37:22.345Z,99.90
2023-02-23T20:39:54.323Z,99.90
2023-02-23T20:42:27.232Z,99.90
2023-02-23T20:45:01.888Z,99.90
2023-02-23T20:47:36.192Z,99.90
2023-02-23T20:50:05.761Z,99.90
2023-02-23T20:52:35.476Z,99.90
2023-02-23T20:55:19.924Z,99.90
2023-02-23T20:57:50.693Z,99.90
2023-02-23T21:00:32.788Z,99.90
2023-02-23T21:03:06.182Z,99.90
2023-02-23T21:05:42.053Z,99.90
2023-02-23T21:08:13.623Z,99.90
2023-02-23T21:10:51.009Z,99.90
2023-02-23T21:13:22.365Z,99.90
2023-02-23T21:16:01.959Z,99.90
2023-02-23T21:18:34.671Z,99.90
2023-02-23T21:21:13.391Z,99.90
2023-02-23T21:23:51.478Z,99.90
2023-02-23T21:26:21.737Z,99.90
2023-02-23T21:29:15.300Z,99.90
2023-02-23T21:32:28.512Z,99.90
2023-02-23T21:35:07.886Z,99.90
2023-02-23T21:37:52.325Z,94.40
2023-02-23T21:40:22.751Z,94.60
2023-02-23T21:43:06.962Z,98.60
2023-02-23T21:45:50.459Z,99.70
2023-02-23T21:48:33.936Z,99.90
2023-02-23T21:51:09.517Z,99.90
2023-02-23T21:54:02.777Z,99.90
2023-02-23T21:57:10.643Z,98.30
2023-02-23T21:59:39.937Z,97.20
2023-02-23T22:02:08.996Z,93.80
2023-02-23T22:05:08.849Z,90.00
2023-02-23T22:07:46.227Z,71.90
2023-02-23T22:10:23.777Z,82.60
2023-02-23T22:12:58.094Z,84.20
2023-02-23T22:15:46.349Z,81.00
2023-02-23T22:18:33.402Z,86.10
2023-02-23T22:21:13.162Z,80.30
2023-02-23T22:23:44.333Z,72.20
2023-02-23T22:26:13.507Z,74.90
2023-02-23T22:28:45.273Z,74.30
2023-02-23T22:31:25.928Z,73.80
2023-02-23T22:34:04.492Z,71.70
2023-02-23T22:36:33.955Z,66.50
2023-02-23T22:39:10.572Z,54.90
2023-02-23T22:41:42.579Z,46.60
2023-02-23T22:44:20.696Z,46.10
2023-02-23T22:47:00.929Z,44.20
2023-02-23T22:49:36.729Z,45.50
2023-02-23T22:52:08.802Z,44.60
2023-02-23T22:54:40.652Z,42.30
2023-02-23T22:57:10.050Z,33.20
2023-02-23T22:59:38.751Z,35.10
2023-02-23T23:02:07.166Z,25.90
2023-02-23T23:04:35.772Z,23.20
2023-02-23T23:07:06.384Z,23.10
2023-02-23T23:09:36.370Z,18.60
2023-02-23T23:12:06.627Z,25.20
2023-02-23T23:14:35.684Z,17.60
2023-02-23T23:17:04.410Z,20.30
2023-02-23T23:19:39.189Z,23.40
2023-02-23T23:22:13.650Z,20.80
2023-02-23T23:24:46.337Z,20.50
2023-02-23T23:27:16.571Z,18.20
2023-02-23T23:29:47.214Z,20.30
2023-02-23T23:32:18.144Z,15.80
2023-02-23T23:34:49.316Z,12.10
2023-02-23T23:37:19.258Z,11.80
2023-02-23T23:39:59.594Z,13.10
2023-02-23T23:42:30.064Z,15.40
2023-02-23T23:44:58.826Z,13.90
2023-02-23T23:47:30.821Z,11.70
2023-02-23T23:49:59.378Z,11.60
2023-02-23T23:52:30.406Z,11.30
2023-02-23T23:54:58.987Z,10.20
2023-02-23T23:57:33.155Z,9.40
